Time;durP1;ratioP1;P1;durP2;ratioP2;P2;SDS_P1;SDS_P2;PMS_P1;PMS_P2;Temp;Humidity;BMP_temperature;BMP_pressure;BME280_temperature;BME280_humidity;BME280_pressure;Samples;Min_cycle;Max_cycle;Signal;HPM_P1;HPM_P2
2022/01/27 00:05:47;;;;;;;34.03;12.00;;;;;;;;;;5020000;28;20120;-79
2022/01/27 00:08:17;;;;;;;30.03;11.53;;;;;;;;;;5018726;28;20287;-78
2022/01/27 00:13:18;;;;;;;31.93;12.50;;;;;;;;;;5025632;28;20613;-77
2022/01/27 00:15:48;;;;;;;30.20;12.27;;;;;;;;;;5024571;28;20394;-80
2022/01/27 00:18:17;;;;;;;30.27;13.97;;;;;;;;;;5028842;28;20279;-78
2022/01/27 00:20:44;;;;;;;31.20;12.20;;;;;;;;;;5039080;28;20275;-80
2022/01/27 00:23:10;;;;;;;42.07;14.17;;;;;;;;;;5024673;28;20759;-78
2022/01/27 00:25:36;;;;;;;38.90;13.63;;;;;;;;;;5024588;28;20376;-78
2022/01/27 00:28:05;;;;;;;40.70;14.63;;;;;;;;;;5024544;28;20699;-77
2022/01/27 00:30:31;;;;;;;42.33;13.80;;;;;;;;;;5035993;28;20281;-77
2022/01/27 00:32:57;;;;;;;34.80;12.83;;;;;;;;;;5024822;28;20303;-80
2022/01/27 00:35:24;;;;;;;36.77;12.43;;;;;;;;;;5028210;28;20387;-80
2022/01/27 00:37:50;;;;;;;27.53;11.07;;;;;;;;;;5022531;28;20413;-78
2022/01/27 00:40:19;;;;;;;49.37;14.90;;;;;;;;;;5024117;28;21574;-78
2022/01/27 00:42:47;;;;;;;32.33;13.53;;;;;;;;;;5037283;28;20038;-78
2022/01/27 00:45:15;;;;;;;36.80;12.70;;;;;;;;;;5024365;28;20280;-80
2022/01/27 00:47:41;;;;;;;37.50;13.40;;;;;;;;;;5024316;28;20307;-77
2022/01/27 00:50:11;;;;;;;34.07;12.43;;;;;;;;;;5022938;28;20275;-79
2022/01/27 00:52:44;;;;;;;44.97;14.00;;;;;;;;;;5038344;28;20304;-79
2022/01/27 00:55:11;;;;;;;37.07;12.30;;;;;;;;;;5038864;28;20656;-79
2022/01/27 00:57:58;;;;;;;44.97;13.93;;;;;;;;;;5036842;28;20653;-80
2022/01/27 01:00:30;;;;;;;43.83;14.70;;;;;;;;;;5023128;28;20291;-80
2022/01/27 01:03:10;;;;;;;46.20;14.05;;;;;;;;;;5023571;28;20276;-81
2022/01/27 01:34:46;;;;;;;44.73;12.60;;;;;;;;;;5022610;28;20288;-81
2022/01/27 01:37:17;;;;;;;51.30;12.93;;;;;;;;;;5037588;28;20284;-78
2022/01/27 01:39:44;;;;;;;45.80;13.30;;;;;;;;;;5021747;28;21889;-79
2022/01/27 01:42:12;;;;;;;42.20;11.90;;;;;;;;;;5038927;28;20288;-79
2022/01/27 01:44:41;;;;;;;49.97;11.50;;;;;;;;;;5026702;28;20338;-78
2022/01/27 01:47:07;;;;;;;43.37;12.87;;;;;;;;;;5023026;28;20287;-80
2022/01/27 01:49:34;;;;;;;40.87;11.93;;;;;;;;;;5020046;28;20386;-79
2022/01/27 01:52:03;;;;;;;35.37;11.10;;;;;;;;;;5022262;28;21228;-77
2022/01/27 01:54:29;;;;;;;41.50;11.47;;;;;;;;;;5038686;28;20623;-78
2022/01/27 01:56:55;;;;;;;41.10;10.30;;;;;;;;;;5022762;28;20260;-80
2022/01/27 01:59:24;;;;;;;34.20;11.60;;;;;;;;;;5026523;28;20025;-77
2022/01/27 02:01:50;;;;;;;43.27;11.03;;;;;;;;;;5023923;28;20272;-79
2022/01/27 02:04:17;;;;;;;40.10;11.87;;;;;;;;;;5018852;28;20276;-79
2022/01/27 02:06:49;;;;;;;39.57;12.17;;;;;;;;;;5036530;28;20359;-77
2022/01/27 02:09:50;;;;;;;43.97;11.07;;;;;;;;;;5022745;28;20664;-76
2022/01/27 02:17:59;;;;;;;44.67;11.20;;;;;;;;;;5023465;28;20283;-77
2022/01/27 02:20:25;;;;;;;41.10;10.53;;;;;;;;;;5035579;28;20806;-77
2022/01/27 02:22:53;;;;;;;45.27;11.23;;;;;;;;;;5036076;28;20312;-77
2022/01/27 02:25:19;;;;;;;40.67;12.57;;;;;;;;;;5037678;28;20772;-77
2022/01/27 02:27:45;;;;;;;41.17;11.77;;;;;;;;;;5023207;28;20367;-78
2022/01/27 02:30:11;;;;;;;42.10;11.60;;;;;;;;;;5038237;28;20296;-80
2022/01/27 02:32:37;;;;;;;35.47;10.07;;;;;;;;;;5021964;28;20284;-77
2022/01/27 02:35:06;;;;;;;37.90;11.37;;;;;;;;;;5033881;28;20334;-78
2022/01/27 02:37:32;;;;;;;39.93;10.97;;;;;;;;;;5035013;28;20120;-78
2022/01/27 02:39:58;;;;;;;39.97;10.20;;;;;;;;;;5035105;28;20272;-79
2022/01/27 02:42:36;;;;;;;39.37;11.23;;;;;;;;;;5035910;28;20299;-81
2022/01/27 02:45:08;;;;;;;36.50;10.80;;;;;;;;;;5036046;28;20034;-78
2022/01/27 02:47:34;;;;;;;33.60;10.32;;;;;;;;;;5019907;28;20322;-78
2022/01/27 02:50:01;;;;;;;42.77;11.83;;;;;;;;;;5020692;28;20040;-79
2022/01/27 02:52:27;;;;;;;38.20;11.97;;;;;;;;;;5022235;28;20378;-79
2022/01/27 02:54:53;;;;;;;34.30;10.77;;;;;;;;;;5020358;28;20284;-76
2022/01/27 02:57:20;;;;;;;34.43;11.00;;;;;;;;;;5035198;28;20284;-81
2022/01/27 02:59:46;;;;;;;41.60;11.97;;;;;;;;;;5019135;28;20276;-79
2022/01/27 03:02:12;;;;;;;39.87;10.27;;;;;;;;;;5034551;28;20308;-80
2022/01/27 03:04:38;;;;;;;48.57;10.33;;;;;;;;;;5024880;28;20288;-80
2022/01/27 03:07:06;;;;;;;39.27;10.40;;;;;;;;;;5034395;28;20303;-80
2022/01/27 03:09:37;;;;;;;37.63;10.03;;;;;;;;;;5034499;28;21014;-79
2022/01/27 03:12:10;;;;;;;45.80;10.30;;;;;;;;;;5024303;28;20276;-81
2022/01/27 03:14:37;;;;;;;31.63;10.00;;;;;;;;;;5016569;28;20674;-80
2022/01/27 03:17:06;;;;;;;32.47;9.80;;;;;;;;;;5020616;28;20284;-80
2022/01/27 03:19:32;;;;;;;38.93;9.40;;;;;;;;;;5020120;28;20273;-78
2022/01/27 03:22:01;;;;;;;29.83;8.17;;;;;;;;;;5019539;28;21284;-80
2022/01/27 03:24:30;;;;;;;36.70;9.80;;;;;;;;;;5020929;28;20610;-77
2022/01/27 03:26:56;;;;;;;36.17;10.90;;;;;;;;;;5032127;28;20272;-80
2022/01/27 03:29:23;;;;;;;30.53;9.43;;;;;;;;;;5019944;28;20280;-79
2022/01/27 03:31:49;;;;;;;26.73;8.53;;;;;;;;;;5020354;28;20632;-77
2022/01/27 03:34:17;;;;;;;29.57;9.60;;;;;;;;;;5036136;28;20794;-78
2022/01/27 03:36:43;;;;;;;32.33;10.07;;;;;;;;;;5033937;28;20296;-79
2022/01/27 03:39:09;;;;;;;41.13;10.07;;;;;;;;;;5021872;28;20284;-78
2022/01/27 03:41:37;;;;;;;37.10;9.27;;;;;;;;;;5022933;28;20338;-79
2022/01/27 03:44:06;;;;;;;31.40;8.93;;;;;;;;;;5024975;28;20288;-77
2022/01/27 03:46:37;;;;;;;30.47;9.30;;;;;;;;;;5019560;28;20303;-82
2022/01/27 03:49:03;;;;;;;29.60;8.90;;;;;;;;;;5034561;28;20284;-81
2022/01/27 03:51:29;;;;;;;38.53;10.13;;;;;;;;;;5019178;28;20661;-81
2022/01/27 03:53:55;;;;;;;37.23;9.77;;;;;;;;;;5032773;28;20041;-78
2022/01/27 03:56:21;;;;;;;37.97;10.00;;;;;;;;;;5019126;28;21730;-79
2022/01/27 03:58:47;;;;;;;27.67;8.00;;;;;;;;;;5032882;28;20033;-76
2022/01/27 04:01:13;;;;;;;28.07;8.73;;;;;;;;;;5034694;28;20284;-80
2022/01/27 04:03:39;;;;;;;30.00;9.30;;;;;;;;;;5033189;28;20272;-80
2022/01/27 04:06:10;;;;;;;36.80;8.87;;;;;;;;;;5034098;28;20044;-80
2022/01/27 04:08:37;;;;;;;35.23;9.17;;;;;;;;;;5020534;28;20292;-78
2022/01/27 04:11:08;;;;;;;28.70;8.47;;;;;;;;;;5033505;28;21193;-80
2022/01/27 04:13:35;;;;;;;36.77;10.00;;;;;;;;;;5032927;28;20342;-76
2022/01/27 04:16:01;;;;;;;25.70;8.37;;;;;;;;;;5019475;28;20374;-81
2022/01/27 04:18:27;;;;;;;32.23;9.50;;;;;;;;;;5032889;28;20327;-78
2022/01/27 04:20:54;;;;;;;28.80;8.23;;;;;;;;;;5020947;28;20283;-77
2022/01/27 04:23:20;;;;;;;35.37;9.23;;;;;;;;;;5034399;28;20784;-76
2022/01/27 04:25:46;;;;;;;28.90;8.23;;;;;;;;;;5019904;28;20370;-78
2022/01/27 04:28:16;;;;;;;32.50;9.20;;;;;;;;;;5018912;28;20350;-79
2022/01/27 04:30:44;;;;;;;27.90;7.97;;;;;;;;;;5033442;28;20288;-78
2022/01/27 04:33:10;;;;;;;21.80;8.37;;;;;;;;;;5018753;28;20380;-81
2022/01/27 04:35:42;;;;;;;25.47;8.13;;;;;;;;;;5031802;28;20767;-77
2022/01/27 04:46:42;;;;;;;30.30;8.67;;;;;;;;;;5019969;28;20289;-78
2022/01/27 04:49:09;;;;;;;28.05;8.02;;;;;;;;;;5022869;28;20285;-80
2022/01/27 04:51:35;;;;;;;29.83;9.03;;;;;;;;;;5020079;28;20246;-81
2022/01/27 04:54:18;;;;;;;27.87;8.50;;;;;;;;;;5023764;28;20299;-80
2022/01/27 04:56:44;;;;;;;26.00;7.65;;;;;;;;;;5033042;28;20355;-78
2022/01/27 04:59:26;;;;;;;26.57;8.23;;;;;;;;;;5021657;28;20470;-77
2022/01/27 05:02:01;;;;;;;22.53;8.63;;;;;;;;;;5023614;28;20310;-80
2022/01/27 05:04:33;;;;;;;21.87;8.47;;;;;;;;;;5027956;28;20284;-80
2022/01/27 05:07:01;;;;;;;24.97;6.90;;;;;;;;;;5024160;28;20284;-78
2022/01/27 05:09:27;;;;;;;26.67;7.53;;;;;;;;;;5023030;28;20343;-82
2022/01/27 05:11:58;;;;;;;28.00;8.70;;;;;;;;;;5034987;28;20287;-78
2022/01/27 05:14:25;;;;;;;20.10;6.73;;;;;;;;;;5036273;28;20033;-80
2022/01/27 05:16:57;;;;;;;24.87;7.27;;;;;;;;;;5024728;28;20286;-81
2022/01/27 05:19:25;;;;;;;21.30;7.47;;;;;;;;;;5022546;28;20284;-78
2022/01/27 05:21:51;;;;;;;25.20;7.30;;;;;;;;;;5036766;28;20029;-80
2022/01/27 05:24:19;;;;;;;28.40;8.00;;;;;;;;;;5035976;28;20275;-78
2022/01/27 05:26:45;;;;;;;22.47;7.30;;;;;;;;;;5026753;28;20949;-81
2022/01/27 05:29:11;;;;;;;21.90;7.63;;;;;;;;;;5022906;28;20383;-79
2022/01/27 05:31:38;;;;;;;28.90;7.13;;;;;;;;;;5027776;28;20295;-77
2022/01/27 05:34:04;;;;;;;23.60;7.40;;;;;;;;;;5023085;28;21969;-80
2022/01/27 05:36:30;;;;;;;22.33;7.60;;;;;;;;;;5027573;28;20810;-82
2022/01/27 05:38:56;;;;;;;25.50;7.67;;;;;;;;;;5023973;28;20386;-79
2022/01/27 05:41:22;;;;;;;26.40;8.07;;;;;;;;;;5024842;28;20880;-80
2022/01/27 05:43:48;;;;;;;24.73;7.80;;;;;;;;;;5021362;28;20283;-78
2022/01/27 05:46:17;;;;;;;26.50;7.77;;;;;;;;;;5021665;28;20111;-80
2022/01/27 05:48:43;;;;;;;34.20;8.03;;;;;;;;;;5038571;28;20088;-80
2022/01/27 05:51:14;;;;;;;22.77;7.07;;;;;;;;;;5036660;28;20294;-77
2022/01/27 05:53:42;;;;;;;24.87;7.13;;;;;;;;;;5027279;28;20280;-79
2022/01/27 05:56:08;;;;;;;20.03;8.00;;;;;;;;;;5036221;28;20368;-81
2022/01/27 05:58:34;;;;;;;22.87;8.00;;;;;;;;;;5036011;28;20848;-79
2022/01/27 06:01:00;;;;;;;23.07;7.83;;;;;;;;;;5024372;28;20030;-80
2022/01/27 06:03:26;;;;;;;21.40;6.83;;;;;;;;;;5028032;28;20034;-82
2022/01/27 06:05:52;;;;;;;23.60;8.63;;;;;;;;;;5021283;28;20057;-79
2022/01/27 06:08:18;;;;;;;19.03;7.53;;;;;;;;;;5023478;28;20723;-80
2022/01/27 06:10:44;;;;;;;20.20;7.10;;;;;;;;;;5021551;28;20037;-80
2022/01/27 06:13:12;;;;;;;15.23;6.63;;;;;;;;;;5027499;28;20041;-79
2022/01/27 06:15:39;;;;;;;18.73;6.63;;;;;;;;;;5022950;28;20036;-79
2022/01/27 06:18:05;;;;;;;25.37;7.37;;;;;;;;;;5024482;28;20029;-80
2022/01/27 06:20:32;;;;;;;18.70;7.00;;;;;;;;;;5038671;28;20022;-79
2022/01/27 06:22:58;;;;;;;20.20;8.53;;;;;;;;;;5026281;28;20128;-80
2022/01/27 06:25:25;;;;;;;18.17;7.40;;;;;;;;;;5036427;28;20042;-81
2022/01/27 06:27:53;;;;;;;19.83;7.93;;;;;;;;;;5022206;28;20034;-81
2022/01/27 06:30:19;;;;;;;17.30;6.83;;;;;;;;;;5023332;28;20041;-78
2022/01/27 06:32:45;;;;;;;23.07;7.83;;;;;;;;;;5036096;28;21647;-78
2022/01/27 06:35:11;;;;;;;24.67;8.60;;;;;;;;;;5026704;28;20049;-79
2022/01/27 06:37:37;;;;;;;32.13;8.63;;;;;;;;;;5036786;28;20445;-79
2022/01/27 06:40:07;;;;;;;17.67;7.80;;;;;;;;;;5018295;28;20465;-79
2022/01/27 06:42:33;;;;;;;19.80;8.03;;;;;;;;;;5037964;28;20026;-78
2022/01/27 06:44:59;;;;;;;21.03;8.10;;;;;;;;;;5022292;28;20381;-80
2022/01/27 06:47:27;;;;;;;22.47;8.03;;;;;;;;;;5026322;28;20026;-80
2022/01/27 06:49:53;;;;;;;18.43;7.80;;;;;;;;;;5022420;28;20349;-80
2022/01/27 06:52:20;;;;;;;20.60;7.50;;;;;;;;;;5022602;28;20088;-82
2022/01/27 06:54:49;;;;;;;15.77;6.50;;;;;;;;;;5021735;28;20041;-82
2022/01/27 06:57:17;;;;;;;23.07;7.57;;;;;;;;;;5019172;28;20474;-79
2022/01/27 06:59:43;;;;;;;27.37;8.50;;;;;;;;;;5020719;28;20112;-79
2022/01/27 07:02:09;;;;;;;16.77;7.17;;;;;;;;;;5034092;28;20047;-79
2022/01/27 07:04:35;;;;;;;21.03;6.90;;;;;;;;;;5021527;28;20037;-79
2022/01/27 07:07:01;;;;;;;17.37;7.30;;;;;;;;;;5036125;28;20033;-81
2022/01/27 07:09:29;;;;;;;17.37;6.83;;;;;;;;;;5022699;28;20045;-77
2022/01/27 07:11:55;;;;;;;18.47;7.20;;;;;;;;;;5021062;28;20080;-80
2022/01/27 07:14:21;;;;;;;23.70;8.63;;;;;;;;;;5036454;28;20053;-78
2022/01/27 07:16:47;;;;;;;16.00;7.03;;;;;;;;;;5020256;28;20034;-81
2022/01/27 07:19:15;;;;;;;16.83;7.10;;;;;;;;;;5036532;28;20034;-82
2022/01/27 07:21:41;;;;;;;24.47;8.87;;;;;;;;;;5035033;28;20482;-80
2022/01/27 07:24:07;;;;;;;16.13;7.63;;;;;;;;;;5021357;28;20021;-80
2022/01/27 07:26:36;;;;;;;17.00;8.20;;;;;;;;;;5036133;28;20406;-80
2022/01/27 07:29:02;;;;;;;16.73;8.00;;;;;;;;;;5034821;28;20744;-81
2022/01/27 07:31:28;;;;;;;15.30;6.93;;;;;;;;;;5020674;28;20347;-81
2022/01/27 07:33:54;;;;;;;18.83;8.27;;;;;;;;;;5020015;28;20041;-79
2022/01/27 07:36:23;;;;;;;17.23;8.07;;;;;;;;;;5021983;28;20486;-78
2022/01/27 07:38:49;;;;;;;15.57;6.93;;;;;;;;;;5037310;28;20107;-79
2022/01/27 07:41:16;;;;;;;15.03;6.50;;;;;;;;;;5018843;28;21642;-81
2022/01/27 07:43:42;;;;;;;16.40;6.83;;;;;;;;;;5020787;28;20734;-80
2022/01/27 07:46:11;;;;;;;14.57;6.53;;;;;;;;;;5021642;28;20055;-80
2022/01/27 07:48:39;;;;;;;21.27;7.37;;;;;;;;;;5020144;28;20067;-81
2022/01/27 07:51:08;;;;;;;16.33;8.40;;;;;;;;;;5035185;28;20063;-78
2022/01/27 07:53:35;;;;;;;13.43;7.77;;;;;;;;;;5020543;28;20622;-82
2022/01/27 07:56:02;;;;;;;19.87;7.93;;;;;;;;;;5019881;28;20025;-79
2022/01/27 07:58:29;;;;;;;10.53;6.37;;;;;;;;;;5020976;28;20610;-80
2022/01/27 08:00:57;;;;;;;13.17;6.70;;;;;;;;;;5032946;28;20472;-80
2022/01/27 08:03:23;;;;;;;13.93;7.80;;;;;;;;;;5020249;28;20037;-77
2022/01/27 08:05:51;;;;;;;17.53;7.67;;;;;;;;;;5020127;28;20044;-82
2022/01/27 08:08:17;;;;;;;17.57;6.57;;;;;;;;;;5033545;28;20045;-79
2022/01/27 08:10:44;;;;;;;17.60;7.10;;;;;;;;;;5025284;28;20069;-79
2022/01/27 08:13:11;;;;;;;19.40;7.43;;;;;;;;;;5032950;28;20132;-80
2022/01/27 08:15:37;;;;;;;15.03;7.67;;;;;;;;;;5017946;28;20029;-79
2022/01/27 08:18:04;;;;;;;14.57;7.90;;;;;;;;;;5021823;28;20113;-80
2022/01/27 08:20:30;;;;;;;16.67;6.40;;;;;;;;;;5021000;28;20133;-78
2022/01/27 08:22:56;;;;;;;15.37;6.70;;;;;;;;;;5034481;28;20044;-79
2022/01/27 08:25:25;;;;;;;23.37;7.50;;;;;;;;;;5036109;28;20503;-77
2022/01/27 08:27:57;;;;;;;15.63;7.13;;;;;;;;;;5036871;28;20457;-80
2022/01/27 08:30:27;;;;;;;13.98;7.07;;;;;;;;;;5032944;28;20037;-80
2022/01/27 08:32:59;;;;;;;16.67;7.87;;;;;;;;;;5021200;28;20037;-77
2022/01/27 08:35:27;;;;;;;20.25;7.30;;;;;;;;;;5038507;28;20088;-80
2022/01/27 08:37:53;;;;;;;25.30;8.20;;;;;;;;;;5040806;28;20120;-83
2022/01/27 08:40:20;;;;;;;19.23;8.27;;;;;;;;;;5022963;28;20331;-78
2022/01/27 08:42:46;;;;;;;15.93;8.03;;;;;;;;;;5025136;28;20022;-77
2022/01/27 08:45:13;;;;;;;19.93;6.83;;;;;;;;;;5038785;28;20382;-80
2022/01/27 08:47:44;;;;;;;13.73;7.83;;;;;;;;;;5024130;28;21631;-80
2022/01/27 08:50:12;;;;;;;14.83;6.90;;;;;;;;;;5037212;28;20373;-80
2022/01/27 08:52:38;;;;;;;19.67;8.83;;;;;;;;;;5024099;28;20096;-78
2022/01/27 08:55:05;;;;;;;17.87;8.37;;;;;;;;;;5043400;28;20029;-80
2022/01/27 08:57:31;;;;;;;18.03;8.53;;;;;;;;;;5046091;28;20831;-79
2022/01/27 08:59:57;;;;;;;16.80;7.53;;;;;;;;;;5046445;28;20037;-79
2022/01/27 09:02:23;;;;;;;20.87;8.37;;;;;;;;;;5045402;28;20122;-78
2022/01/27 09:04:49;;;;;;;18.40;7.50;;;;;;;;;;5030447;28;21529;-78
2022/01/27 09:07:18;;;;;;;17.00;8.07;;;;;;;;;;5047009;28;20124;-78
2022/01/27 09:09:47;;;;;;;18.80;7.70;;;;;;;;;;5045250;28;20109;-80
2022/01/27 09:12:16;;;;;;;23.93;7.40;;;;;;;;;;5031844;28;20121;-79
2022/01/27 09:14:43;;;;;;;19.50;8.50;;;;;;;;;;5043139;28;20038;-79
2022/01/27 09:17:10;;;;;;;22.60;9.17;;;;;;;;;;5045988;28;20030;-78
2022/01/27 09:19:39;;;;;;;20.43;8.60;;;;;;;;;;5044157;28;20032;-78
2022/01/27 09:22:12;;;;;;;20.03;8.40;;;;;;;;;;5028730;28;20078;-79
2022/01/27 09:25:06;;;;;;;20.27;8.50;;;;;;;;;;5028869;28;20187;-78
2022/01/27 09:27:34;;;;;;;24.50;8.33;;;;;;;;;;5044490;28;20105;-80
2022/01/27 09:30:02;;;;;;;17.87;8.50;;;;;;;;;;5045003;28;20036;-80
2022/01/27 09:32:31;;;;;;;20.27;9.43;;;;;;;;;;5034987;28;20150;-78
2022/01/27 09:34:59;;;;;;;21.03;9.03;;;;;;;;;;5046912;28;20065;-80
2022/01/27 09:37:28;;;;;;;19.50;9.17;;;;;;;;;;5031660;28;20030;-79
2022/01/27 09:39:55;;;;;;;22.20;10.10;;;;;;;;;;5030343;28;20044;-79
2022/01/27 09:42:26;;;;;;;22.00;9.77;;;;;;;;;;5034914;28;21205;-78
2022/01/27 09:44:53;;;;;;;19.80;9.47;;;;;;;;;;5032441;28;20089;-78
2022/01/27 09:47:20;;;;;;;25.13;10.10;;;;;;;;;;5035173;28;20041;-79
2022/01/27 09:49:53;;;;;;;22.57;9.03;;;;;;;;;;5046225;28;20917;-79
2022/01/27 09:52:22;;;;;;;26.20;12.10;;;;;;;;;;5045538;28;20037;-79
2022/01/27 09:54:48;;;;;;;19.97;8.17;;;;;;;;;;5036109;28;20033;-79
2022/01/27 09:57:16;;;;;;;22.80;9.83;;;;;;;;;;5037143;28;20120;-79
2022/01/27 09:59:43;;;;;;;24.10;8.57;;;;;;;;;;5034244;28;20029;-79
2022/01/27 10:02:12;;;;;;;23.73;10.07;;;;;;;;;;5048653;28;20025;-79
2022/01/27 10:04:41;;;;;;;25.80;10.33;;;;;;;;;;5036921;28;20037;-79
2022/01/27 10:07:08;;;;;;;30.63;10.03;;;;;;;;;;5051475;28;20049;-80
2022/01/27 10:09:36;;;;;;;22.23;9.97;;;;;;;;;;5050590;28;20060;-79
2022/01/27 10:12:03;;;;;;;22.13;10.13;;;;;;;;;;5035743;28;20058;-80
2022/01/27 10:14:34;;;;;;;25.70;10.40;;;;;;;;;;5035661;28;20044;-79
2022/01/27 10:17:02;;;;;;;18.77;9.63;;;;;;;;;;5051260;28;20025;-78
2022/01/27 10:19:29;;;;;;;28.43;11.17;;;;;;;;;;5052894;28;20021;-81
2022/01/27 10:22:00;;;;;;;26.30;10.07;;;;;;;;;;5040177;28;20033;-81
2022/01/27 10:24:27;;;;;;;30.60;10.37;;;;;;;;;;5038921;28;20025;-79
2022/01/27 10:27:17;;;;;;;31.27;10.60;;;;;;;;;;5035628;28;20093;-79
2022/01/27 10:32:43;;;;;;;23.63;9.77;;;;;;;;;;5031933;28;20037;-81
2022/01/27 10:35:11;;;;;;;22.03;9.00;;;;;;;;;;5049784;28;20101;-80
2022/01/27 10:37:56;;;;;;;24.27;9.87;;;;;;;;;;5032329;28;20084;-80
2022/01/27 10:40:39;;;;;;;27.10;11.40;;;;;;;;;;5033886;28;20522;-79
2022/01/27 10:43:07;;;;;;;20.65;9.23;;;;;;;;;;5037738;28;20036;-78
2022/01/27 10:45:33;;;;;;;20.47;9.10;;;;;;;;;;5038576;28;20095;-79
2022/01/27 10:48:10;;;;;;;20.80;9.83;;;;;;;;;;5038494;28;20034;-79
2022/01/27 10:50:55;;;;;;;23.77;9.93;;;;;;;;;;5046673;28;20021;-80
2022/01/27 10:53:23;;;;;;;16.07;8.10;;;;;;;;;;5047681;28;20334;-79
2022/01/27 10:56:05;;;;;;;21.10;8.00;;;;;;;;;;5046291;28;20032;-79
2022/01/27 10:58:31;;;;;;;20.92;9.68;;;;;;;;;;5032895;28;20041;-78
2022/01/27 11:00:59;;;;;;;22.90;8.07;;;;;;;;;;5034984;28;20025;-79
2022/01/27 11:03:28;;;;;;;22.53;9.50;;;;;;;;;;5035410;28;20671;-79
2022/01/27 11:05:56;;;;;;;20.77;8.60;;;;;;;;;;5045557;28;20038;-80
2022/01/27 11:08:24;;;;;;;19.70;8.63;;;;;;;;;;5045662;28;20041;-79
2022/01/27 11:10:50;;;;;;;17.10;7.53;;;;;;;;;;5034565;28;20065;-79
2022/01/27 11:13:17;;;;;;;25.77;8.87;;;;;;;;;;5045463;28;20331;-79
2022/01/27 11:15:44;;;;;;;17.17;8.63;;;;;;;;;;5032490;28;20021;-79
2022/01/27 11:18:13;;;;;;;17.30;7.40;;;;;;;;;;5042611;28;20030;-80
2022/01/27 11:20:57;;;;;;;22.37;8.93;;;;;;;;;;5046894;28;20025;-79
2022/01/27 11:26:10;;;;;;;17.20;8.50;;;;;;;;;;5029411;28;20037;-78
2022/01/27 11:28:38;;;;;;;19.70;7.23;;;;;;;;;;5027083;28;20026;-77
2022/01/27 11:31:04;;;;;;;12.93;7.07;;;;;;;;;;5026171;28;20461;-79
2022/01/27 11:33:35;;;;;;;12.73;7.27;;;;;;;;;;5030222;28;20044;-78
2022/01/27 11:36:23;;;;;;;18.07;6.80;;;;;;;;;;5024903;28;20091;-80
2022/01/27 11:38:52;;;;;;;15.40;7.53;;;;;;;;;;5027151;28;20029;-79
2022/01/27 11:41:36;;;;;;;17.07;7.17;;;;;;;;;;5038024;28;20037;-78
2022/01/27 11:44:22;;;;;;;12.90;7.13;;;;;;;;;;5024766;28;20591;-77
2022/01/27 11:47:08;;;;;;;12.97;6.57;;;;;;;;;;5026400;28;20883;-79
2022/01/27 11:49:53;;;;;;;15.77;6.80;;;;;;;;;;5025248;28;20480;-77
2022/01/27 11:52:27;;;;;;;14.20;7.20;;;;;;;;;;5039869;28;20048;-79
2022/01/27 11:54:53;;;;;;;17.30;7.00;;;;;;;;;;5041044;28;20037;-78
2022/01/27 11:57:40;;;;;;;11.83;6.20;;;;;;;;;;5031023;28;20557;-78
2022/01/27 12:00:12;;;;;;;18.73;7.20;;;;;;;;;;5029303;28;20037;-80
2022/01/27 12:02:57;;;;;;;11.73;6.13;;;;;;;;;;5039996;28;20029;-80
2022/01/27 12:05:27;;;;;;;9.77;5.67;;;;;;;;;;5039863;28;20029;-79
2022/01/27 12:08:11;;;;;;;11.23;5.83;;;;;;;;;;5029034;28;20113;-78
2022/01/27 12:10:41;;;;;;;12.17;6.93;;;;;;;;;;5039457;28;20030;-78
2022/01/27 12:13:46;;;;;;;12.00;6.37;;;;;;;;;;5031910;28;20025;-80
2022/01/27 12:19:01;;;;;;;14.17;6.20;;;;;;;;;;5025744;28;20112;-79
2022/01/27 12:21:39;;;;;;;14.90;7.03;;;;;;;;;;5031334;28;20029;-80
2022/01/27 12:24:11;;;;;;;9.33;5.17;;;;;;;;;;5029727;28;20038;-79
2022/01/27 12:26:58;;;;;;;11.35;6.25;;;;;;;;;;5040915;28;20128;-81
2022/01/27 12:29:34;;;;;;;13.00;6.30;;;;;;;;;;5025280;28;20037;-79
2022/01/27 12:32:04;;;;;;;11.07;6.20;;;;;;;;;;5026713;28;20065;-79
2022/01/27 12:34:35;;;;;;;10.97;5.23;;;;;;;;;;5041503;28;20464;-79
2022/01/27 12:37:10;;;;;;;12.37;6.90;;;;;;;;;;5042230;28;20494;-80
2022/01/27 12:39:39;;;;;;;12.60;6.17;;;;;;;;;;5029387;28;20109;-78
2022/01/27 12:42:10;;;;;;;10.47;5.83;;;;;;;;;;5043017;28;20043;-79
2022/01/27 12:44:38;;;;;;;9.20;5.03;;;;;;;;;;5042653;28;20045;-78
2022/01/27 12:47:15;;;;;;;10.47;5.40;;;;;;;;;;5030750;28;20049;-78
2022/01/27 12:49:46;;;;;;;11.13;6.03;;;;;;;;;;5024659;28;20091;-79
2022/01/27 12:52:18;;;;;;;8.97;5.03;;;;;;;;;;5039513;28;20041;-79
2022/01/27 12:54:48;;;;;;;7.75;5.22;;;;;;;;;;5043678;28;20033;-79
2022/01/27 12:57:14;;;;;;;10.83;4.97;;;;;;;;;;5039892;28;20041;-77
2022/01/27 12:59:42;;;;;;;11.40;5.37;;;;;;;;;;5039697;28;20022;-79
2022/01/27 13:02:09;;;;;;;7.00;4.53;;;;;;;;;;5034050;28;20033;-81
2022/01/27 13:04:36;;;;;;;7.93;3.97;;;;;;;;;;5045187;28;20025;-80
2022/01/27 13:07:05;;;;;;;11.07;5.00;;;;;;;;;;5026763;28;20030;-79
2022/01/27 13:09:32;;;;;;;8.30;4.57;;;;;;;;;;5029878;28;20042;-79
2022/01/27 13:12:00;;;;;;;6.80;4.37;;;;;;;;;;5029796;28;20025;-78
2022/01/27 13:14:27;;;;;;;6.63;4.07;;;;;;;;;;5039357;28;20037;-80
2022/01/27 13:17:06;;;;;;;9.30;4.40;;;;;;;;;;5029865;28;20053;-81
2022/01/27 13:19:39;;;;;;;7.53;3.83;;;;;;;;;;5030533;28;20010;-78
2022/01/27 13:22:13;;;;;;;5.20;3.77;;;;;;;;;;5029821;28;20055;-78
2022/01/27 13:24:47;;;;;;;7.43;4.33;;;;;;;;;;5027768;28;20092;-79
2022/01/27 13:27:13;;;;;;;6.37;3.97;;;;;;;;;;5046007;28;20037;-79
2022/01/27 13:29:42;;;;;;;7.00;4.57;;;;;;;;;;5041507;28;20030;-79
2022/01/27 13:32:08;;;;;;;6.57;4.30;;;;;;;;;;5027394;28;20071;-77
2022/01/27 13:34:35;;;;;;;7.60;4.53;;;;;;;;;;5046348;28;20044;-77
2022/01/27 13:37:01;;;;;;;4.73;3.40;;;;;;;;;;5044003;28;20061;-77
2022/01/27 13:41:54;;;;;;;5.93;3.70;;;;;;;;;;5029016;28;20402;-78
2022/01/27 13:44:21;;;;;;;9.63;4.97;;;;;;;;;;5030142;28;20026;-76
2022/01/27 13:46:54;;;;;;;6.17;3.77;;;;;;;;;;5032033;28;20035;-80
2022/01/27 13:49:27;;;;;;;4.37;3.57;;;;;;;;;;5042381;28;20409;-78
2022/01/27 13:51:53;;;;;;;6.43;3.50;;;;;;;;;;5044004;28;20347;-79
2022/01/27 13:54:23;;;;;;;5.97;4.27;;;;;;;;;;5032790;28;20029;-77
2022/01/27 13:56:51;;;;;;;8.80;3.70;;;;;;;;;;5027712;28;20040;-79
2022/01/27 13:59:21;;;;;;;4.30;3.13;;;;;;;;;;5042411;28;20061;-79
2022/01/27 14:01:47;;;;;;;6.80;3.80;;;;;;;;;;5041607;28;20029;-77
2022/01/27 14:04:13;;;;;;;8.33;3.53;;;;;;;;;;5030420;28;20029;-79
2022/01/27 14:06:56;;;;;;;6.47;3.40;;;;;;;;;;5042898;28;20052;-79
2022/01/27 14:09:24;;;;;;;5.72;3.50;;;;;;;;;;5041039;28;20037;-79
2022/01/27 14:12:00;;;;;;;7.60;4.50;;;;;;;;;;5041165;28;20029;-80
2022/01/27 14:14:46;;;;;;;7.83;4.07;;;;;;;;;;5040111;28;20040;-77
2022/01/27 14:17:21;;;;;;;5.80;4.10;;;;;;;;;;5039339;28;20026;-79
2022/01/27 14:19:47;;;;;;;6.10;3.93;;;;;;;;;;5042856;28;20026;-79
2022/01/27 14:22:17;;;;;;;9.00;4.17;;;;;;;;;;5041844;28;20477;-78
2022/01/27 14:25:03;;;;;;;7.53;3.87;;;;;;;;;;5029299;28;20361;-78
2022/01/27 14:27:33;;;;;;;6.97;3.97;;;;;;;;;;5038979;28;20483;-78
2022/01/27 14:30:01;;;;;;;7.50;4.40;;;;;;;;;;5026118;28;20072;-77
2022/01/27 14:32:27;;;;;;;13.70;5.07;;;;;;;;;;5039441;28;20124;-79
2022/01/27 14:34:53;;;;;;;7.50;4.13;;;;;;;;;;5039214;28;20099;-80
2022/01/27 14:37:22;;;;;;;12.60;7.30;;;;;;;;;;5051094;28;20033;-78
2022/01/27 14:39:48;;;;;;;7.40;4.80;;;;;;;;;;5035064;28;20030;-77
2022/01/27 14:42:16;;;;;;;6.27;4.67;;;;;;;;;;5025493;28;20049;-78
2022/01/27 14:44:42;;;;;;;5.77;3.80;;;;;;;;;;5038682;28;20025;-79
2022/01/27 14:47:09;;;;;;;8.90;5.00;;;;;;;;;;5038673;28;20022;-78
2022/01/27 14:49:40;;;;;;;10.93;5.77;;;;;;;;;;5043742;28;20021;-79
2022/01/27 14:52:11;;;;;;;6.77;5.07;;;;;;;;;;5027998;28;20489;-79
2022/01/27 14:54:37;;;;;;;9.63;4.53;;;;;;;;;;5042238;28;20026;-80
2022/01/27 14:57:03;;;;;;;9.13;5.43;;;;;;;;;;5022219;28;20025;-79
2022/01/27 14:59:29;;;;;;;6.63;4.57;;;;;;;;;;5031042;28;20026;-79
2022/01/27 15:01:55;;;;;;;8.80;5.37;;;;;;;;;;5041696;28;20358;-79
2022/01/27 15:04:23;;;;;;;9.23;5.13;;;;;;;;;;5042795;28;20025;-78
2022/01/27 15:06:53;;;;;;;7.27;5.40;;;;;;;;;;5029001;28;20095;-79
2022/01/27 15:09:19;;;;;;;13.10;6.30;;;;;;;;;;5041452;28;20065;-78
2022/01/27 15:11:47;;;;;;;10.13;6.27;;;;;;;;;;5027275;28;20063;-79
2022/01/27 15:19:46;;;;;;;10.27;6.20;;;;;;;;;;5028282;28;20087;-80
2022/01/27 15:22:12;;;;;;;12.37;7.07;;;;;;;;;;5041036;28;20029;-78
2022/01/27 15:24:43;;;;;;;17.17;6.43;;;;;;;;;;5042771;28;20032;-80
2022/01/27 15:27:09;;;;;;;9.03;6.43;;;;;;;;;;5025312;28;20030;-80
2022/01/27 15:29:35;;;;;;;10.57;6.67;;;;;;;;;;5024246;28;20446;-78
2022/01/27 15:32:03;;;;;;;13.70;6.23;;;;;;;;;;5039599;28;20026;-78
2022/01/27 15:34:29;;;;;;;12.47;6.73;;;;;;;;;;5024537;28;20039;-79
2022/01/27 15:36:55;;;;;;;10.10;7.03;;;;;;;;;;5025944;28;20087;-79
2022/01/27 15:39:23;;;;;;;13.40;7.43;;;;;;;;;;5043013;28;20043;-80
2022/01/27 15:41:50;;;;;;;16.67;8.33;;;;;;;;;;5032179;28;20029;-79
2022/01/27 15:44:19;;;;;;;12.47;8.27;;;;;;;;;;5028957;28;20840;-77
2022/01/27 15:46:45;;;;;;;11.87;6.63;;;;;;;;;;5041253;28;20029;-78